Flight ASX109

  • Submitted By: Krzysztof H. Blaszkow
  • Departure Airport: Warszawa Chopina (EPWA)
  • Arrival Airport: Gdansk im. Lecha Walesy (EPGD)
  • Aircraft: BE58 (SP-MVL)
  • Flight Time: 01.30.03
  • Date Submitted: 11/21/2016
  • Route: OLILA DCT GRU DCT OSLOG
  • Status: Accepted
Flight Details
Gross Revenue:
(5 load / € 55.00 per unit
€ 275.00
Fuel Cost:
(88.4505 fuel used @ 0.45 / unit)
€ 39.80

Additional Log Information:

View Log

[20:51] - Carenado BARON B58 METAL BLUE
[20:51] - Flight ASX109 is ready to depart EPWA with a final destination of EPGD.
[20:51] - Parking Brake Applied
[20:51] - Navigation Lights ON
[20:51] - Beacon Light ON
[20:51] - Instrument Lights ON
[20:51] - Recognition Lights ON
[20:51] - Logo Lights ON
[20:51] - Cabin Lights ON
[20:51] - Boarding
[20:51] - ADF1 - 284.0
[20:51] - ADF2 - 240.0
[20:51] - NAV1 - 113.40
[20:51] - NAV2 - 110.60
[20:51] - COM1 - 120.45
[20:51] - COM2 - 127.90
[20:51] - Transponder - 4531
[20:55] - COM1 - 134.92
[21:03] - COM1 - 122.80
[21:03] - Wing Lights ON 0AGL
[21:03] - Taxi Lights ON 0AGL
[21:03] - Engine 1 Started
[21:03] - Engine 2 Started
[21:04] - Parking Brake Released
[21:05] - Taxiing to Runway
[21:05] - Taxi Lights OFF 0AGL
[21:05] - Landing Lights ON 0AGL
[21:08] - Flaps to position 1
[21:10] - Taking Off with 5 passengers on board
[21:10] - Take off at 104kts, with a pitch of 2deg and 337lbs of fuel on board
[21:10] - Wind Heading 132 | Wind Speed 14kts | Temperature 7 deg C
[21:10] - METAR Departure: EPWA 212030Z 13015KT CAVOK 05/04 Q1018 NOSIG

[21:10] - Gear up at 98AGL
[21:10] - Climbing to TOC
[21:13] - Flaps to position 0 at 4744ft and 131kts
[21:14] - AutoPilot Engaged at 6332AGL
[21:16] - Strobe Lights ON 7788AGL
[21:16] - Landing Lights OFF 7867AGL
[21:16] - TOC reached
[21:16] - Cruise started
[21:28] - NAV1 - 114.60
[21:56] - NAV1 - 116.10
[21:59] - Landing Lights ON 7710AGL
[22:05] - TOD reached
[22:05] - Descending to destination
[22:07] - Landing Shortly
[22:12] - Gear down at 2480AGL
[22:13] - AutoPilot Disengaged at 1867AGL
[22:13] - Flaps to position 1 at 2405ft and 118kts
[22:17] - Landed at -106fpm. With 145lbs of fuel onboard and a pitch angle of 3deg.
[22:17] - Wind Heading 142 | Wind Speed 9kts | Temperature 8 deg C
[22:17] - METAR Arrival: EPGD 212200Z 14007KT CAVOK 07/06 Q1012

[22:17] - Flaps to position 0
[22:18] - Taxiing to Gate
[22:18] - Strobe Lights OFF 0AGL
[22:18] - Landing Lights OFF 0AGL
[22:18] - Taxi Lights ON 0AGL
[22:21] - Parking Brake Applied
[22:21] - Arrived safely at EPGD. We hope you enjoyed your flight!
[22:21] - Engine 1 Stopped
[22:22] - Engine 2 Stopped
[22:22] - Taxi Lights OFF 0AGL
[22:22] - Beacon Lights OFF 0AGL
[22:22] - Beacon Light ON 0AGL
[22:22] - Carenado BARON B58 METAL BLUE
[22:22] - MaxSim Rate: 1x
[22:22] - SiouxAcars ver: 1.0.1.2

Route Map